Time;durP1;ratioP1;P1;durP2;ratioP2;P2;SDS_P1;SDS_P2;PMS_P1;PMS_P2;Temp;Humidity;BMP_temperature;BMP_pressure;BME280_temperature;BME280_humidity;BME280_pressure;Samples;Min_cycle;Max_cycle;Signal;HPM_P1;HPM_P2
2023/10/28 00:00:45;;;;;;;;;;;11.60;99.90;;;;;;5120006;27;20752;-83
2023/10/28 00:03:12;;;;;;;;;;;11.60;99.90;;;;;;5116932;27;20002;-82
2023/10/28 00:05:38;;;;;;;;;;;11.60;99.90;;;;;;5123210;27;19985;-81
2023/10/28 00:08:05;;;;;;;;;;;11.60;99.90;;;;;;5123174;27;20140;-81
2023/10/28 00:10:35;;;;;;;;;;;11.50;99.90;;;;;;5119524;27;20390;-82
2023/10/28 00:13:02;;;;;;;;;;;11.50;99.90;;;;;;5117063;27;20688;-83
2023/10/28 00:15:29;;;;;;;;;;;11.50;99.90;;;;;;5121863;27;19994;-81
2023/10/28 00:17:56;;;;;;;;;;;11.50;99.90;;;;;;5117350;27;20515;-81
2023/10/28 00:20:22;;;;;;;;;;;11.50;99.90;;;;;;5124852;27;19974;-81
2023/10/28 00:22:53;;;;;;;;;;;11.50;99.90;;;;;;5119874;27;19994;-81
2023/10/28 00:25:22;;;;;;;;;;;11.50;99.90;;;;;;5125943;27;20004;-82
2023/10/28 00:27:50;;;;;;;;;;;11.50;99.90;;;;;;5123481;27;19985;-81
2023/10/28 00:30:17;;;;;;;;;;;11.50;99.90;;;;;;5118587;27;19983;-81
2023/10/28 00:32:44;;;;;;;;;;;11.50;99.90;;;;;;5122594;27;20000;-80
2023/10/28 00:35:11;;;;;;;;;;;11.50;99.90;;;;;;5121724;27;20037;-82
2023/10/28 00:37:38;;;;;;;;;;;11.40;99.90;;;;;;5122153;27;19982;-82
2023/10/28 00:40:06;;;;;;;;;;;11.50;99.90;;;;;;5123356;27;19983;-82
2023/10/28 00:42:35;;;;;;;;;;;11.50;99.90;;;;;;5123311;27;20002;-82
2023/10/28 00:45:05;;;;;;;;;;;11.50;99.90;;;;;;5119765;27;19975;-82
2023/10/28 00:47:33;;;;;;;;;;;11.50;99.90;;;;;;5122944;27;20001;-83
2023/10/28 00:50:00;;;;;;;;;;;11.40;99.90;;;;;;5125781;27;20021;-82
2023/10/28 00:52:28;;;;;;;;;;;11.40;99.90;;;;;;5122274;27;20005;-81
2023/10/28 00:54:56;;;;;;;;;;;11.40;99.90;;;;;;5119334;27;19978;-83
2023/10/28 00:57:23;;;;;;;;;;;11.40;99.90;;;;;;5118584;27;19974;-80
2023/10/28 00:59:48;;;;;;;;;;;11.40;99.90;;;;;;5114460;27;20020;-83
2023/10/28 01:02:18;;;;;;;;;;;11.40;99.90;;;;;;5120892;27;20601;-87
2023/10/28 01:04:45;;;;;;;;;;;11.40;99.90;;;;;;5119190;27;19989;-82
2023/10/28 01:07:12;;;;;;;;;;;11.40;99.90;;;;;;5125695;27;20537;-83
2023/10/28 01:09:46;;;;;;;;;;;11.40;99.90;;;;;;5127127;27;19978;-80
2023/10/28 01:12:13;;;;;;;;;;;11.40;99.90;;;;;;5124378;27;20713;-80
2023/10/28 01:14:40;;;;;;;;;;;11.30;99.90;;;;;;5123882;27;19981;-82
2023/10/28 01:17:07;;;;;;;;;;;11.40;99.90;;;;;;5124991;27;20081;-81
2023/10/28 01:19:35;;;;;;;;;;;11.30;99.90;;;;;;5123613;27;20073;-83
2023/10/28 01:22:03;;;;;;;;;;;11.40;99.90;;;;;;5122690;27;19995;-82
2023/10/28 01:24:32;;;;;;;;;;;11.30;99.90;;;;;;5121288;27;19985;-82
2023/10/28 01:26:59;;;;;;;;;;;11.30;99.90;;;;;;5123332;27;20055;-82
2023/10/28 01:29:26;;;;;;;;;;;11.30;99.90;;;;;;5123074;27;20106;-80
2023/10/28 01:31:53;;;;;;;;;;;11.30;99.90;;;;;;5121797;27;19994;-80
2023/10/28 01:34:21;;;;;;;;;;;11.30;99.90;;;;;;5124231;27;20474;-80
2023/10/28 01:36:48;;;;;;;;;;;11.30;99.90;;;;;;5116901;27;19989;-81
2023/10/28 01:39:16;;;;;;;;;;;11.30;99.90;;;;;;5118262;27;20095;-81
2023/10/28 01:41:43;;;;;;;;;;;11.30;99.90;;;;;;5117238;27;19974;-83
2023/10/28 01:44:11;;;;;;;;;;;11.30;99.90;;;;;;5123862;27;20416;-83
2023/10/28 01:46:38;;;;;;;;;;;11.30;99.90;;;;;;5123460;27;20022;-81
2023/10/28 01:49:05;;;;;;;;;;;11.30;99.90;;;;;;5121820;27;20077;-81
2023/10/28 01:51:32;;;;;;;;;;;11.30;99.90;;;;;;5120922;27;19978;-82
2023/10/28 01:53:59;;;;;;;;;;;11.30;99.90;;;;;;5122239;27;19978;-81
2023/10/28 01:56:28;;;;;;;;;;;11.30;99.90;;;;;;5121024;27;20058;-82
2023/10/28 01:58:54;;;;;;;;;;;11.30;99.90;;;;;;5118258;27;19979;-82
2023/10/28 02:01:23;;;;;;;;;;;11.30;99.90;;;;;;5121991;27;20008;-83
2023/10/28 02:03:50;;;;;;;;;;;11.30;99.90;;;;;;5122002;27;20001;-81
2023/10/28 02:06:17;;;;;;;;;;;11.30;99.90;;;;;;5125213;27;20080;-81
2023/10/28 02:08:44;;;;;;;;;;;11.30;99.90;;;;;;5125388;27;20070;-82
2023/10/28 02:11:11;;;;;;;;;;;11.20;99.90;;;;;;5121295;27;19988;-80
2023/10/28 02:13:39;;;;;;;;;;;11.20;99.90;;;;;;5116635;27;20093;-80
2023/10/28 02:16:06;;;;;;;;;;;11.20;99.90;;;;;;5117657;27;19999;-80
2023/10/28 02:18:33;;;;;;;;;;;11.20;99.90;;;;;;5123413;27;19979;-80
2023/10/28 02:20:59;;;;;;;;;;;11.20;99.90;;;;;;5115146;27;19975;-81
2023/10/28 02:23:26;;;;;;;;;;;11.20;99.90;;;;;;5131030;27;20006;-81
2023/10/28 02:25:53;;;;;;;;;;;11.20;99.90;;;;;;5123671;27;20055;-81
2023/10/28 02:28:19;;;;;;;;;;;11.20;99.90;;;;;;5123308;27;19984;-83
2023/10/28 02:30:47;;;;;;;;;;;11.20;99.90;;;;;;5122516;27;20638;-82
2023/10/28 02:33:14;;;;;;;;;;;11.20;99.90;;;;;;5121532;27;20646;-81
2023/10/28 02:35:40;;;;;;;;;;;11.10;99.90;;;;;;5122519;27;20454;-81
2023/10/28 02:38:07;;;;;;;;;;;11.10;99.90;;;;;;5121883;27;19982;-81
2023/10/28 02:40:33;;;;;;;;;;;11.20;99.90;;;;;;5115018;27;19975;-81
2023/10/28 02:43:00;;;;;;;;;;;11.10;99.90;;;;;;5125122;27;20029;-81
2023/10/28 02:45:27;;;;;;;;;;;11.10;99.90;;;;;;5119912;27;20001;-81
2023/10/28 02:47:56;;;;;;;;;;;11.10;99.90;;;;;;5122343;27;20018;-81
2023/10/28 02:50:22;;;;;;;;;;;11.10;99.90;;;;;;5119937;27;20301;-82
2023/10/28 02:52:50;;;;;;;;;;;11.20;99.90;;;;;;5122678;27;20101;-80
2023/10/28 02:55:17;;;;;;;;;;;11.10;99.90;;;;;;5119809;27;20090;-82
2023/10/28 02:57:44;;;;;;;;;;;11.10;99.90;;;;;;5117343;27;19975;-82
2023/10/28 03:00:11;;;;;;;;;;;11.10;99.90;;;;;;5113646;27;20109;-83
2023/10/28 03:02:38;;;;;;;;;;;11.10;99.90;;;;;;5120400;27;19998;-81
2023/10/28 03:05:06;;;;;;;;;;;11.10;99.90;;;;;;5117710;27;19986;-81
2023/10/28 03:07:33;;;;;;;;;;;11.10;99.90;;;;;;5124727;27;19971;-81
2023/10/28 03:09:59;;;;;;;;;;;11.10;99.90;;;;;;5121179;27;19978;-81
2023/10/28 03:12:26;;;;;;;;;;;11.10;99.90;;;;;;5121511;27;20424;-83
2023/10/28 03:14:53;;;;;;;;;;;11.10;99.90;;;;;;5118173;27;19979;-81
2023/10/28 03:17:19;;;;;;;;;;;11.10;99.90;;;;;;5119016;27;19994;-82
2023/10/28 03:19:46;;;;;;;;;;;11.10;99.90;;;;;;5120395;27;19982;-80
2023/10/28 03:22:14;;;;;;;;;;;11.10;99.90;;;;;;5120380;27;19994;-81
2023/10/28 03:24:41;;;;;;;;;;;11.10;99.90;;;;;;5123204;27;19980;-81
2023/10/28 03:27:07;;;;;;;;;;;11.10;99.90;;;;;;5125965;27;19981;-82
2023/10/28 03:29:35;;;;;;;;;;;11.10;99.90;;;;;;5118775;27;19982;-81
2023/10/28 03:32:02;;;;;;;;;;;11.10;99.90;;;;;;5120086;27;20005;-81
2023/10/28 03:34:29;;;;;;;;;;;11.10;99.90;;;;;;5116773;27;19982;-81
2023/10/28 03:36:55;;;;;;;;;;;11.00;99.90;;;;;;5114362;27;20056;-81
2023/10/28 03:39:23;;;;;;;;;;;11.10;99.90;;;;;;5118275;27;19985;-81
2023/10/28 03:41:50;;;;;;;;;;;11.00;99.90;;;;;;5112226;27;20109;-80
2023/10/28 03:44:17;;;;;;;;;;;11.00;99.90;;;;;;5120262;27;20069;-81
2023/10/28 03:46:43;;;;;;;;;;;11.00;99.90;;;;;;5115637;27;19994;-82
2023/10/28 03:49:10;;;;;;;;;;;11.00;99.90;;;;;;5122523;27;20684;-81
2023/10/28 03:51:38;;;;;;;;;;;11.00;99.90;;;;;;5113585;27;19996;-81
2023/10/28 03:54:05;;;;;;;;;;;11.00;99.90;;;;;;5117454;27;19990;-83
2023/10/28 03:56:33;;;;;;;;;;;11.00;99.90;;;;;;5114836;27;19978;-83
2023/10/28 03:59:00;;;;;;;;;;;11.00;99.90;;;;;;5117538;27;20698;-81
2023/10/28 04:01:27;;;;;;;;;;;11.00;99.90;;;;;;5115516;27;19994;-82
2023/10/28 04:03:55;;;;;;;;;;;11.00;99.90;;;;;;5122684;27;20018;-81
2023/10/28 04:06:21;;;;;;;;;;;11.00;99.90;;;;;;5124893;27;19985;-82
2023/10/28 04:08:48;;;;;;;;;;;11.00;99.90;;;;;;5122652;27;20017;-81
2023/10/28 04:11:14;;;;;;;;;;;11.00;99.90;;;;;;5123880;27;20031;-82
2023/10/28 04:13:42;;;;;;;;;;;11.00;99.90;;;;;;5118267;27;20003;-81
2023/10/28 04:16:09;;;;;;;;;;;11.00;99.90;;;;;;5122523;27;20821;-82
2023/10/28 04:18:36;;;;;;;;;;;11.00;99.90;;;;;;5119455;27;19996;-81
2023/10/28 04:21:02;;;;;;;;;;;11.00;99.90;;;;;;5115225;27;20073;-81
2023/10/28 04:23:29;;;;;;;;;;;10.90;99.90;;;;;;5120643;27;20063;-83
2023/10/28 04:25:56;;;;;;;;;;;10.90;99.90;;;;;;5123780;27;20819;-82
2023/10/28 04:28:23;;;;;;;;;;;11.00;99.90;;;;;;5125226;27;20081;-82
2023/10/28 04:30:57;;;;;;;;;;;11.00;99.90;;;;;;5118632;27;19998;-83
2023/10/28 04:33:24;;;;;;;;;;;11.00;99.90;;;;;;5113840;27;20052;-83
2023/10/28 04:35:54;;;;;;;;;;;11.00;99.90;;;;;;5117103;27;20353;-81
2023/10/28 04:38:20;;;;;;;;;;;11.00;99.90;;;;;;5118939;27;20014;-82
2023/10/28 04:40:47;;;;;;;;;;;11.00;99.90;;;;;;5119817;27;19982;-82
2023/10/28 04:43:13;;;;;;;;;;;11.00;99.90;;;;;;5117846;27;20105;-81
2023/10/28 04:45:41;;;;;;;;;;;10.90;99.90;;;;;;5119764;27;20837;-83
2023/10/28 04:48:10;;;;;;;;;;;11.00;99.90;;;;;;5122265;27;19985;-81
2023/10/28 04:50:36;;;;;;;;;;;10.90;99.90;;;;;;5105038;27;20081;-80
2023/10/28 04:53:03;;;;;;;;;;;10.90;99.90;;;;;;5104522;27;20033;-82
2023/10/28 04:55:30;;;;;;;;;;;11.00;99.90;;;;;;5121440;27;20752;-81
2023/10/28 04:57:56;;;;;;;;;;;10.90;99.90;;;;;;5119357;27;20012;-80
2023/10/28 05:00:23;;;;;;;;;;;10.90;99.90;;;;;;5118103;27;19974;-81
2023/10/28 05:02:50;;;;;;;;;;;10.90;99.90;;;;;;5122857;27;20359;-81
2023/10/28 05:05:18;;;;;;;;;;;10.90;99.90;;;;;;5122214;27;19975;-81
2023/10/28 05:07:45;;;;;;;;;;;10.90;99.90;;;;;;5126844;27;19978;-81
2023/10/28 05:10:11;;;;;;;;;;;10.90;99.90;;;;;;5120704;27;20467;-81
2023/10/28 05:12:39;;;;;;;;;;;10.90;99.90;;;;;;5118467;27;19995;-81
2023/10/28 05:15:08;;;;;;;;;;;10.90;99.90;;;;;;5119889;27;20036;-81
2023/10/28 05:17:35;;;;;;;;;;;10.90;99.90;;;;;;5127015;27;19990;-80
2023/10/28 05:20:01;;;;;;;;;;;10.90;99.90;;;;;;5120264;27;19978;-81
2023/10/28 05:22:30;;;;;;;;;;;10.90;99.90;;;;;;5124755;27;20001;-80
2023/10/28 05:24:56;;;;;;;;;;;10.90;99.90;;;;;;5125505;27;20010;-81
2023/10/28 05:27:23;;;;;;;;;;;10.90;99.90;;;;;;5125689;27;19981;-81
2023/10/28 05:29:50;;;;;;;;;;;10.90;99.90;;;;;;5120145;27;19986;-80
2023/10/28 05:32:16;;;;;;;;;;;10.90;99.90;;;;;;5121742;27;19998;-80
2023/10/28 05:34:43;;;;;;;;;;;10.90;99.90;;;;;;5120477;27;20631;-81
2023/10/28 05:37:10;;;;;;;;;;;10.90;99.90;;;;;;5113827;27;19985;-81
2023/10/28 05:39:40;;;;;;;;;;;10.90;99.90;;;;;;5121123;27;19982;-80
2023/10/28 05:42:06;;;;;;;;;;;10.90;99.90;;;;;;5118413;27;20030;-81
2023/10/28 05:44:33;;;;;;;;;;;10.90;99.90;;;;;;5118601;27;19986;-81
2023/10/28 05:47:01;;;;;;;;;;;10.90;99.90;;;;;;5120819;27;20754;-81
2023/10/28 05:49:28;;;;;;;;;;;10.90;99.90;;;;;;5118653;27;19989;-81
2023/10/28 05:51:57;;;;;;;;;;;10.90;99.90;;;;;;5115488;27;19994;-82
2023/10/28 05:54:23;;;;;;;;;;;10.90;99.90;;;;;;5120117;27;19999;-82
2023/10/28 05:56:51;;;;;;;;;;;10.90;99.90;;;;;;5117616;27;19979;-82
2023/10/28 05:59:18;;;;;;;;;;;10.90;99.90;;;;;;5117496;27;19983;-82
2023/10/28 06:01:44;;;;;;;;;;;10.90;99.90;;;;;;5113667;27;20399;-82
2023/10/28 06:04:11;;;;;;;;;;;10.90;99.90;;;;;;5115881;27;20475;-82
2023/10/28 06:06:37;;;;;;;;;;;10.90;99.90;;;;;;5114611;27;19975;-80
2023/10/28 06:09:04;;;;;;;;;;;10.90;99.90;;;;;;5117505;27;19986;-82
2023/10/28 06:11:31;;;;;;;;;;;10.90;99.90;;;;;;5119081;27;19982;-81
2023/10/28 06:14:00;;;;;;;;;;;10.90;99.90;;;;;;5120447;27;19994;-81
2023/10/28 06:16:26;;;;;;;;;;;10.90;99.90;;;;;;5118417;27;20022;-83
2023/10/28 06:18:53;;;;;;;;;;;10.90;99.90;;;;;;5121537;27;20279;-81
2023/10/28 06:21:20;;;;;;;;;;;10.90;99.90;;;;;;5113351;27;20010;-82
2023/10/28 06:23:45;;;;;;;;;;;10.90;99.90;;;;;;5117370;27;19996;-84
2023/10/28 06:26:12;;;;;;;;;;;10.90;99.90;;;;;;5120933;27;19976;-80
2023/10/28 06:28:38;;;;;;;;;;;10.90;99.90;;;;;;5118435;27;19975;-82
2023/10/28 06:31:06;;;;;;;;;;;10.90;99.90;;;;;;5123862;27;20281;-82
2023/10/28 06:33:33;;;;;;;;;;;10.90;99.90;;;;;;5123122;27;20051;-82
2023/10/28 06:36:00;;;;;;;;;;;10.90;99.90;;;;;;5119624;27;19982;-81
2023/10/28 06:38:28;;;;;;;;;;;11.00;99.90;;;;;;5120861;27;19975;-81
2023/10/28 06:40:54;;;;;;;;;;;10.90;99.90;;;;;;5118959;27;19986;-82
2023/10/28 06:43:23;;;;;;;;;;;11.00;99.90;;;;;;5119432;27;19997;-81
2023/10/28 06:45:49;;;;;;;;;;;10.90;99.90;;;;;;5117868;27;20400;-82
2023/10/28 06:48:17;;;;;;;;;;;10.90;99.90;;;;;;5120655;27;19985;-81
2023/10/28 06:50:45;;;;;;;;;;;11.00;99.90;;;;;;5120407;27;19975;-82
2023/10/28 06:53:11;;;;;;;;;;;10.90;99.90;;;;;;5118476;27;19990;-81
2023/10/28 06:55:38;;;;;;;;;;;10.90;99.90;;;;;;5115881;27;20400;-82
2023/10/28 06:58:04;;;;;;;;;;;10.90;99.90;;;;;;5121353;27;19986;-82
2023/10/28 07:00:31;;;;;;;;;;;10.90;99.90;;;;;;5115300;27;19998;-82
2023/10/28 07:02:59;;;;;;;;;;;11.00;99.90;;;;;;5115402;27;19995;-81
2023/10/28 07:05:27;;;;;;;;;;;11.00;99.90;;;;;;5120801;27;19978;-81
2023/10/28 07:07:54;;;;;;;;;;;11.00;99.90;;;;;;5117413;27;19986;-82
2023/10/28 07:10:21;;;;;;;;;;;11.00;99.90;;;;;;5115792;27;20032;-81
2023/10/28 07:12:49;;;;;;;;;;;11.00;99.90;;;;;;5122105;27;19990;-80
2023/10/28 07:15:16;;;;;;;;;;;10.90;99.90;;;;;;5117377;27;20397;-82
2023/10/28 07:17:43;;;;;;;;;;;11.00;99.90;;;;;;5122509;27;19982;-81
2023/10/28 07:20:10;;;;;;;;;;;11.00;99.90;;;;;;5119336;27;19989;-81
2023/10/28 07:22:38;;;;;;;;;;;11.00;99.90;;;;;;5116419;27;20467;-81
2023/10/28 07:25:06;;;;;;;;;;;11.00;99.90;;;;;;5118523;27;20739;-81
2023/10/28 07:27:32;;;;;;;;;;;11.00;99.90;;;;;;5121031;27;20035;-81
2023/10/28 07:29:59;;;;;;;;;;;11.00;99.90;;;;;;5119542;27;20060;-81
2023/10/28 07:32:26;;;;;;;;;;;11.00;99.90;;;;;;5122623;27;19994;-81
2023/10/28 07:34:52;;;;;;;;;;;11.00;99.90;;;;;;5119802;27;20502;-80
2023/10/28 07:37:19;;;;;;;;;;;11.00;99.90;;;;;;5117399;27;19986;-81
2023/10/28 07:39:48;;;;;;;;;;;11.00;99.90;;;;;;5119210;27;20015;-80
2023/10/28 07:42:15;;;;;;;;;;;11.00;99.90;;;;;;5119345;27;20004;-80
2023/10/28 07:44:44;;;;;;;;;;;11.00;99.90;;;;;;5118187;27;20091;-80
2023/10/28 07:47:11;;;;;;;;;;;11.00;99.90;;;;;;5120748;27;19999;-81
2023/10/28 07:49:37;;;;;;;;;;;11.00;99.90;;;;;;5119595;28;19978;-80
2023/10/28 07:52:04;;;;;;;;;;;11.00;99.90;;;;;;5123684;27;20498;-80
2023/10/28 07:54:32;;;;;;;;;;;11.10;99.90;;;;;;5122303;27;20002;-80
2023/10/28 07:57:00;;;;;;;;;;;11.10;99.90;;;;;;5121296;27;20554;-81
2023/10/28 07:59:27;;;;;;;;;;;11.10;99.90;;;;;;5123312;27;19982;-80
2023/10/28 08:01:54;;;;;;;;;;;11.10;99.90;;;;;;5121042;27;19998;-81
2023/10/28 08:04:21;;;;;;;;;;;11.10;99.90;;;;;;5121167;27;19985;-80
2023/10/28 08:06:47;;;;;;;;;;;11.10;99.90;;;;;;5128708;27;19983;-80
2023/10/28 08:09:15;;;;;;;;;;;11.10;99.90;;;;;;5123408;27;19978;-80
2023/10/28 08:11:42;;;;;;;;;;;11.10;99.90;;;;;;5125593;27;20005;-81
2023/10/28 08:14:10;;;;;;;;;;;11.00;99.90;;;;;;5122766;27;20026;-81
2023/10/28 08:16:37;;;;;;;;;;;11.10;99.90;;;;;;5121861;27;20001;-81
2023/10/28 08:19:04;;;;;;;;;;;11.10;99.90;;;;;;5122605;27;20012;-81
2023/10/28 08:21:31;;;;;;;;;;;11.10;99.90;;;;;;5122662;27;20018;-81
2023/10/28 08:23:57;;;;;;;;;;;11.10;99.90;;;;;;5121430;27;20065;-82
2023/10/28 08:26:26;;;;;;;;;;;11.10;99.90;;;;;;5122918;27;19975;-82
2023/10/28 08:28:53;;;;;;;;;;;11.10;99.90;;;;;;5125375;27;20031;-81
2023/10/28 08:31:21;;;;;;;;;;;11.10;99.90;;;;;;5119437;27;19998;-82
2023/10/28 08:33:50;;;;;;;;;;;11.20;99.90;;;;;;5119517;27;19998;-81
2023/10/28 08:36:17;;;;;;;;;;;11.10;99.90;;;;;;5120447;27;20450;-81
2023/10/28 08:38:44;;;;;;;;;;;11.20;99.90;;;;;;5123252;27;19985;-81
2023/10/28 08:41:11;;;;;;;;;;;11.20;99.90;;;;;;5123888;27;20047;-81
2023/10/28 08:43:38;;;;;;;;;;;11.20;99.90;;;;;;5123771;27;20002;-82
2023/10/28 08:46:05;;;;;;;;;;;11.20;99.90;;;;;;5115646;27;20001;-80
2023/10/28 08:48:33;;;;;;;;;;;11.20;99.90;;;;;;5120991;27;20010;-80
2023/10/28 08:51:01;;;;;;;;;;;11.30;99.90;;;;;;5122962;27;19990;-80
2023/10/28 08:53:28;;;;;;;;;;;11.20;99.90;;;;;;5126389;27;20006;-81
2023/10/28 08:55:55;;;;;;;;;;;11.30;99.90;;;;;;5131078;27;19999;-81
2023/10/28 08:58:21;;;;;;;;;;;11.30;99.90;;;;;;5123606;27;19982;-81
2023/10/28 09:00:50;;;;;;;;;;;11.30;99.90;;;;;;5121741;27;20033;-82
2023/10/28 09:03:17;;;;;;;;;;;11.30;99.90;;;;;;5123310;27;20102;-80
2023/10/28 09:05:45;;;;;;;;;;;11.30;99.90;;;;;;5126520;27;20053;-81
2023/10/28 09:08:12;;;;;;;;;;;11.30;99.90;;;;;;5121878;27;19979;-81
2023/10/28 09:10:41;;;;;;;;;;;11.40;99.90;;;;;;5116852;27;20540;-81
2023/10/28 09:13:11;;;;;;;;;;;11.40;99.90;;;;;;5119903;27;20018;-81
2023/10/28 09:15:38;;;;;;;;;;;11.40;99.90;;;;;;5123807;27;20055;-81
2023/10/28 09:18:04;;;;;;;;;;;11.40;99.90;;;;;;5122392;27;20018;-81
2023/10/28 09:20:31;;;;;;;;;;;11.40;99.90;;;;;;5123789;27;19989;-81
2023/10/28 09:22:59;;;;;;;;;;;11.50;99.90;;;;;;5127269;27;20001;-81
2023/10/28 09:25:26;;;;;;;;;;;11.50;99.90;;;;;;5122192;27;19974;-80
2023/10/28 09:27:53;;;;;;;;;;;11.50;99.90;;;;;;5128253;27;19978;-80
2023/10/28 09:30:21;;;;;;;;;;;11.60;99.90;;;;;;5125671;27;20537;-80
2023/10/28 09:32:48;;;;;;;;;;;11.60;99.90;;;;;;5118498;27;20007;-80
2023/10/28 09:35:15;;;;;;;;;;;11.60;99.90;;;;;;5127977;27;20312;-81
2023/10/28 09:37:42;;;;;;;;;;;11.70;99.90;;;;;;5124940;27;19986;-83
2023/10/28 09:40:12;;;;;;;;;;;11.70;99.90;;;;;;5124593;27;20649;-81
2023/10/28 09:42:39;;;;;;;;;;;11.70;99.90;;;;;;5124836;27;20030;-81
2023/10/28 09:45:08;;;;;;;;;;;11.80;99.90;;;;;;5125022;27;20413;-81
2023/10/28 09:47:40;;;;;;;;;;;11.80;99.90;;;;;;5118096;27;19974;-81
2023/10/28 09:50:09;;;;;;;;;;;11.90;99.90;;;;;;5125351;27;19989;-81
2023/10/28 09:52:36;;;;;;;;;;;12.00;99.90;;;;;;5114049;27;19998;-81
2023/10/28 09:55:05;;;;;;;;;;;12.00;99.90;;;;;;5125988;27;19990;-81
2023/10/28 09:57:33;;;;;;;;;;;12.00;99.90;;;;;;5120982;27;20554;-82
2023/10/28 10:00:03;;;;;;;;;;;12.10;99.90;;;;;;5124855;27;19989;-82
2023/10/28 10:02:34;;;;;;;;;;;12.10;99.90;;;;;;5123034;27;20005;-81
2023/10/28 10:05:04;;;;;;;;;;;12.10;99.90;;;;;;5124553;27;19979;-81
2023/10/28 10:07:31;;;;;;;;;;;12.10;99.90;;;;;;5123779;27;19982;-81
2023/10/28 10:10:06;;;;;;;;;;;12.20;99.90;;;;;;5122388;27;20022;-80
2023/10/28 10:12:34;;;;;;;;;;;12.20;99.90;;;;;;5123006;27;20002;-83
2023/10/28 10:15:03;;;;;;;;;;;12.20;99.90;;;;;;5126736;27;20001;-79
2023/10/28 10:17:33;;;;;;;;;;;12.20;99.90;;;;;;5122976;27;20734;-81
2023/10/28 10:20:04;;;;;;;;;;;12.20;99.90;;;;;;5123945;27;19999;-81
2023/10/28 10:22:31;;;;;;;;;;;12.20;99.90;;;;;;5124555;27;20044;-81
2023/10/28 10:24:58;;;;;;;;;;;12.20;99.90;;;;;;5114411;27;19979;-82
2023/10/28 10:27:36;;;;;;;;;;;12.30;99.90;;;;;;5116456;27;19981;-82
2023/10/28 10:30:03;;;;;;;;;;;12.20;99.90;;;;;;5116385;27;19978;-82
2023/10/28 10:32:40;;;;;;;;;;;12.20;99.90;;;;;;5116270;27;20470;-82
2023/10/28 10:35:10;;;;;;;;;;;12.30;99.90;;;;;;5120752;27;19997;-80
2023/10/28 10:37:36;;;;;;;;;;;12.30;99.90;;;;;;5121782;27;19975;-81
2023/10/28 10:40:07;;;;;;;;;;;12.30;99.90;;;;;;5117510;27;20357;-82
2023/10/28 10:42:34;;;;;;;;;;;12.30;99.90;;;;;;5117225;27;20607;-79
2023/10/28 10:45:03;;;;;;;;;;;12.30;99.90;;;;;;5125981;27;20346;-81
2023/10/28 10:47:30;;;;;;;;;;;12.40;99.90;;;;;;5112053;27;20366;-83
2023/10/28 10:49:57;;;;;;;;;;;12.40;99.90;;;;;;5115510;27;20066;-84
2023/10/28 10:52:23;;;;;;;;;;;12.40;99.90;;;;;;5120612;27;19990;-82
2023/10/28 10:54:50;;;;;;;;;;;12.30;99.90;;;;;;5120088;27;19998;-81
2023/10/28 10:57:17;;;;;;;;;;;12.40;99.90;;;;;;5118120;27;19975;-84
2023/10/28 10:59:43;;;;;;;;;;;12.40;99.90;;;;;;5118035;27;19979;-83
2023/10/28 11:02:12;;;;;;;;;;;12.50;99.90;;;;;;5117212;27;20002;-82
2023/10/28 11:04:39;;;;;;;;;;;12.40;99.90;;;;;;5119910;27;20510;-81
2023/10/28 11:07:07;;;;;;;;;;;12.50;99.90;;;;;;5114753;27;19979;-81
2023/10/28 11:09:34;;;;;;;;;;;12.50;99.90;;;;;;5118752;27;19981;-81
2023/10/28 11:12:01;;;;;;;;;;;12.50;99.90;;;;;;5120865;27;19995;-84
2023/10/28 11:14:28;;;;;;;;;;;12.50;99.90;;;;;;5116805;27;19982;-83
2023/10/28 11:16:54;;;;;;;;;;;12.50;99.90;;;;;;5118470;27;19990;-81
2023/10/28 11:19:22;;;;;;;;;;;12.60;99.90;;;;;;5122452;27;20346;-83
2023/10/28 11:21:49;;;;;;;;;;;12.60;99.90;;;;;;5119814;27;19995;-79
2023/10/28 11:24:17;;;;;;;;;;;12.60;99.90;;;;;;5119775;27;20549;-82
2023/10/28 11:26:46;;;;;;;;;;;12.60;99.90;;;;;;5116497;27;20014;-81
2023/10/28 11:29:15;;;;;;;;;;;12.60;99.90;;;;;;5117554;27;20010;-81
2023/10/28 11:31:41;;;;;;;;;;;12.60;99.90;;;;;;5118181;27;19990;-80
2023/10/28 11:34:08;;;;;;;;;;;12.60;99.90;;;;;;5120500;27;19982;-81
2023/10/28 11:36:38;;;;;;;;;;;12.60;99.90;;;;;;5123091;27;19986;-81
2023/10/28 11:39:10;;;;;;;;;;;12.70;99.90;;;;;;5117744;27;20339;-82
2023/10/28 11:41:37;;;;;;;;;;;12.60;99.90;;;;;;5121484;27;20399;-81
2023/10/28 11:44:04;;;;;;;;;;;12.60;99.90;;;;;;5121490;27;20375;-82
2023/10/28 11:46:31;;;;;;;;;;;12.70;99.90;;;;;;5121764;27;19997;-81
2023/10/28 11:48:57;;;;;;;;;;;12.70;99.90;;;;;;5122691;27;19974;-82
2023/10/28 11:51:25;;;;;;;;;;;12.70;99.90;;;;;;5119779;28;19996;-81
2023/10/28 11:53:53;;;;;;;;;;;12.70;99.90;;;;;;5115979;27;19982;-81
2023/10/28 11:56:20;;;;;;;;;;;12.70;99.90;;;;;;5118125;27;19995;-82
2023/10/28 11:58:49;;;;;;;;;;;12.70;99.90;;;;;;5116673;27;19978;-81
2023/10/28 12:01:15;;;;;;;;;;;12.70;99.90;;;;;;5119743;27;19997;-80
2023/10/28 12:03:42;;;;;;;;;;;12.70;99.90;;;;;;5122429;27;20029;-82
2023/10/28 12:06:08;;;;;;;;;;;12.70;99.90;;;;;;5120727;27;19981;-80
2023/10/28 12:08:35;;;;;;;;;;;12.70;99.90;;;;;;5120193;27;19979;-81
2023/10/28 12:11:03;;;;;;;;;;;12.70;99.90;;;;;;5114680;27;20057;-81
2023/10/28 12:13:31;;;;;;;;;;;12.80;99.90;;;;;;5115493;27;20570;-82
2023/10/28 12:15:57;;;;;;;;;;;12.80;99.90;;;;;;5122384;27;20376;-81
2023/10/28 12:18:24;;;;;;;;;;;12.80;99.90;;;;;;5123857;27;19974;-81
2023/10/28 12:20:51;;;;;;;;;;;12.80;99.90;;;;;;5127490;27;20025;-80
2023/10/28 12:23:17;;;;;;;;;;;12.70;99.90;;;;;;5124226;27;20002;-80
2023/10/28 12:25:44;;;;;;;;;;;12.80;99.90;;;;;;5123150;27;19974;-81
2023/10/28 12:28:12;;;;;;;;;;;12.80;99.90;;;;;;5125875;27;19985;-80
2023/10/28 12:30:40;;;;;;;;;;;12.70;99.90;;;;;;5117953;27;19998;-80
2023/10/28 12:33:09;;;;;;;;;;;12.80;99.90;;;;;;5123718;27;20518;-81
2023/10/28 12:35:35;;;;;;;;;;;12.80;99.90;;;;;;5122676;27;20002;-80
2023/10/28 12:38:03;;;;;;;;;;;12.70;99.90;;;;;;5127086;27;19986;-81
2023/10/28 12:40:30;;;;;;;;;;;12.70;99.90;;;;;;5121398;27;19975;-80
2023/10/28 12:42:57;;;;;;;;;;;12.80;99.90;;;;;;5119357;27;20469;-80
2023/10/28 12:45:25;;;;;;;;;;;12.80;99.90;;;;;;5124556;27;19971;-80
2023/10/28 12:47:51;;;;;;;;;;;12.70;99.90;;;;;;5121233;27;19983;-81
2023/10/28 12:50:19;;;;;;;;;;;12.70;99.90;;;;;;5127609;27;20492;-81
2023/10/28 12:52:45;;;;;;;;;;;12.70;99.90;;;;;;5121110;27;19992;-83
2023/10/28 12:55:12;;;;;;;;;;;12.70;99.90;;;;;;5125257;27;19974;-82
2023/10/28 12:57:39;;;;;;;;;;;12.70;99.90;;;;;;5125554;27;20059;-84
2023/10/28 13:00:10;;;;;;;;;;;12.70;99.90;;;;;;5121645;27;20028;-82
2023/10/28 13:02:38;;;;;;;;;;;12.70;99.90;;;;;;5124195;27;19991;-82
2023/10/28 13:05:05;;;;;;;;;;;12.70;99.90;;;;;;5120045;27;19979;-83
2023/10/28 13:07:32;;;;;;;;;;;12.70;99.90;;;;;;5119995;27;19982;-83
2023/10/28 13:09:58;;;;;;;;;;;12.60;99.90;;;;;;5121191;27;19974;-83
2023/10/28 13:12:25;;;;;;;;;;;12.70;99.90;;;;;;5121615;27;19990;-83
2023/10/28 13:14:52;;;;;;;;;;;12.70;99.90;;;;;;5122311;27;20024;-85
2023/10/28 13:17:19;;;;;;;;;;;12.70;99.90;;;;;;5123552;27;20051;-84
2023/10/28 13:19:47;;;;;;;;;;;12.70;99.90;;;;;;5118482;27;19982;-86
2023/10/28 13:22:13;;;;;;;;;;;12.70;99.90;;;;;;5113530;27;20069;-83
2023/10/28 13:24:40;;;;;;;;;;;12.70;99.90;;;;;;5118473;27;19971;-84
2023/10/28 13:27:07;;;;;;;;;;;12.60;99.90;;;;;;5115423;27;19982;-85
2023/10/28 13:29:33;;;;;;;;;;;12.70;99.90;;;;;;5120025;27;19978;-84
2023/10/28 13:32:01;;;;;;;;;;;12.60;99.90;;;;;;5113803;27;19998;-84
2023/10/28 13:34:30;;;;;;;;;;;12.60;99.90;;;;;;5117520;27;19985;-84
2023/10/28 13:36:58;;;;;;;;;;;12.60;99.90;;;;;;5120131;27;20621;-84
2023/10/28 13:39:26;;;;;;;;;;;12.60;99.90;;;;;;5123578;27;20010;-85
2023/10/28 13:41:52;;;;;;;;;;;12.60;99.90;;;;;;5117527;27;19995;-85
2023/10/28 13:44:19;;;;;;;;;;;12.60;99.90;;;;;;5122911;27;20474;-85
2023/10/28 13:46:46;;;;;;;;;;;12.60;99.90;;;;;;5114972;27;19990;-84
2023/10/28 13:49:13;;;;;;;;;;;12.60;99.90;;;;;;5117708;27;20062;-85
2023/10/28 13:51:40;;;;;;;;;;;12.60;99.90;;;;;;5116335;27;20465;-85
2023/10/28 13:54:09;;;;;;;;;;;12.60;99.90;;;;;;5114990;27;19979;-84
2023/10/28 13:56:37;;;;;;;;;;;12.60;99.90;;;;;;5118448;27;20076;-84
2023/10/28 13:59:03;;;;;;;;;;;12.60;99.90;;;;;;5119720;27;19982;-85
2023/10/28 14:01:30;;;;;;;;;;;12.60;99.90;;;;;;5116308;27;19992;-84
2023/10/28 14:03:57;;;;;;;;;;;12.60;99.90;;;;;;5119655;27;20060;-84
2023/10/28 14:06:24;;;;;;;;;;;12.60;99.90;;;;;;5115632;27;20462;-83
2023/10/28 14:08:51;;;;;;;;;;;12.50;99.90;;;;;;5118799;27;20006;-85
2023/10/28 14:11:22;;;;;;;;;;;12.60;99.90;;;;;;5113307;27;20683;-84
2023/10/28 14:13:49;;;;;;;;;;;12.50;99.90;;;;;;5114066;27;20022;-85
2023/10/28 14:16:16;;;;;;;;;;;12.60;99.90;;;;;;5119954;27;20003;-84